Cyprus Cement — C6UP5 — position and weather

sailwx.info

Track history (hours):
 
Tides and Currents Weather Stations Pressure Air Temp Water Temp Dewpoint Dewpoint Depression Visibility Wind Speed Wind Dir Waves Ship Positions

Cyprus Cement

Last reported at 2015-Apr-20 03:32 UTC. Time now 2015-Apr-21 09:53 UTC.
Position N 59°36' E 010°38'.

Length 97 m; draft 4.7 m.

Type: Cargo ship. MMSI: 311988000.

Date/timePositionNaut miles runAvg speedWind from/ knotsBaromVisibWave heightAir tempDewpointWater temp
2015-Apr-20 03:32N 59°36' E 010°38'1111.1
2015-Apr-20 02:33N 59°26' E 010°34'1111.0
2015-Apr-20 01:33N 59°15' E 010°38'10 9.8
2015-Apr-20 00:33N 59°05' E 010°40'9 8.7
2015-Apr-19 23:33N 58°57' E 010°42'9 8.5
2015-Apr-19 22:32N 58°48' E 010°44'8 8.6
2015-Apr-19 21:33N 58°40' E 010°46'9 8.5
2015-Apr-19 20:33N 58°31' E 010°51'9 8.8
2015-Apr-19 19:33N 58°23' E 010°55'9 9.1
2015-Apr-19 18:33N 58°14' E 011°00'9 9.1
2015-Apr-19 17:33N 58°06' E 011°05'9 9.3
2015-Apr-19 16:33N 57°57' E 011°10'9 9.0
2015-Apr-19 15:33N 57°48' E 011°14'9 8.5
2015-Apr-19 14:33N 57°40' E 011°19'9 8.8
2015-Apr-19 13:33N 57°31' E 011°24'9 8.8
2015-Apr-19 12:33N 57°23' E 011°29'9 8.8
2015-Apr-19 11:33N 57°15' E 011°35'9 8.6
2015-Apr-19 10:33N 57°07' E 011°40'9 8.7
2015-Apr-19 09:33N 56°59' E 011°46'7 6.8
2015-Apr-19 08:33N 56°52' E 011°49'9 9.4
2015-Apr-19 07:33N 56°43' E 011°55'1010.4
2015-Apr-19 06:33N 56°33' E 012°00'1010.1
2015-Apr-19 05:33N 56°24' E 012°08'1312.7
2015-Apr-19 04:34N 56°14' E 012°22'1514.5
2015-Apr-19 03:33N 56°03' E 012°39'1413.7
2015-Apr-19 02:33N 55°50' E 012°46'1313.3
2015-Apr-19 01:33N 55°38' E 012°58'2 2.0
2015-Apr-19 00:31N 55°38' E 013°01'0 0.0
2015-Apr-18 23:31N 55°38' E 013°01'0 0.0
2015-Apr-18 22:31N 55°38' E 013°01'0 0.0
2015-Apr-18 21:31N 55°38' E 013°01'0 0.0
2015-Apr-18 20:31N 55°38' E 013°01'0 0.0
2015-Apr-18 19:31N 55°38' E 013°01'0 0.0
2015-Apr-18 18:31N 55°38' E 013°01'0 0.0
2015-Apr-18 17:31N 55°38' E 013°01'0 0.0
2015-Apr-18 16:31N 55°38' E 013°01'0 0.0
2015-Apr-18 15:31N 55°38' E 013°01'0 0.0
2015-Apr-18 14:31N 55°38' E 013°01'0 0.0
2015-Apr-18 13:31N 55°38' E 013°01'0 0.0
2015-Apr-18 12:31N 55°38' E 013°01'0 0.0
2015-Apr-18 11:31N 55°38' E 013°01'0 0.0
2015-Apr-18 10:31N 55°38' E 013°01'0 0.0
2015-Apr-18 09:28N 55°38' E 013°01'0 0.0
2015-Apr-18 08:31N 55°38' E 013°01'0 0.0
2015-Apr-18 07:31N 55°38' E 013°01'0 0.0
2015-Apr-18 06:31N 55°38' E 013°01'0 0.0
2015-Apr-18 05:28N 55°38' E 013°01'0 0.0
2015-Apr-18 04:31N 55°38' E 013°01'0 0.0
2015-Apr-18 03:31N 55°38' E 013°01'0 0.0
2015-Apr-18 02:31N 55°38' E 013°01'0 0.1
2015-Apr-18 01:33N 55°38' E 013°01'3 3.1
2015-Apr-18 00:33N 55°38' E 012°56'7 7.5
2015-Apr-17 23:33N 55°33' E 012°47'10 9.6
2015-Apr-17 22:33N 55°24' E 012°41'9 9.0
2015-Apr-17 21:33N 55°16' E 012°51'1211.6
2015-Apr-17 20:33N 55°15' E 013°11'  
2015-Apr-13 12:29N 55°41' E 015°34'1011.1
2015-Apr-13 11:34N 55°36' E 015°18'1111.4
2015-Apr-13 10:34N 55°31' E 014°60'1211.6
2015-Apr-13 09:34N 55°25' E 014°42'1111.1
2015-Apr-13 08:34N 55°17' E 014°28'1110.8
2015-Apr-13 07:33N 55°11' E 014°13'3611.8
2015-Apr-13 04:31N 55°14' E 013°10'1111.8
2015-Apr-13 03:34N 55°15' E 012°51'10 9.6
2015-Apr-13 02:34N 55°22' E 012°39'1111.1
2015-Apr-13 01:33N 55°33' E 012°42'9 9.4
2015-Apr-13 00:34N 55°42' E 012°41'1111.2
2015-Apr-12 23:34N 55°53' E 012°39'1111.0
2015-Apr-12 22:34N 56°04' E 012°37'1212.2
2015-Apr-12 21:33N 56°12' E 012°20'1211.5
2015-Apr-12 20:33N 56°19' E 012°03'1311.2
2015-Apr-12 19:21N 56°32' E 011°58'911.1
2015-Apr-12 18:34N 56°41' E 011°54'1111.4
2015-Apr-12 17:33N 56°52' E 011°48'1211.8
2015-Apr-12 16:34N 57°03' E 011°41'1211.7
2015-Apr-12 15:34N 57°14' E 011°34'1211.9
2015-Apr-12 14:33N 57°25' E 011°27'1211.8
2015-Apr-12 13:33N 57°34' E 011°12'1211.9
2015-Apr-12 12:34N 57°41' E 010°54'9 1.4
2015-Apr-12 06:33N 57°47' E 010°42'17711.0
2015-Apr-11 14:33N 55°28' E 007°22'1111.4
2015-Apr-11 13:33N 55°17' E 007°24'1111.2
2015-Apr-11 12:34N 55°06' E 007°27'1111.4
2015-Apr-11 11:33N 54°55' E 007°29'1111.4
2015-Apr-11 10:33N 54°43' E 007°31'1211.8
2015-Apr-11 09:33N 54°32' E 007°32'1212.1
2015-Apr-11 08:33N 54°20' E 007°35'1312.5
2015-Apr-11 07:33N 54°10' E 007°47'1312.8
2015-Apr-11 06:34N 54°01' E 008°04'1312.7
2015-Apr-11 05:33N 53°59' E 008°25'1111.2
2015-Apr-11 04:33N 53°54' E 008°42'9 8.7
2015-Apr-11 03:33N 53°51' E 008°56'9 8.5
2015-Apr-11 02:33N 53°53' E 009°10'8 8.2
2015-Apr-11 01:34N 53°49' E 009°22'1212.1
2015-Apr-11 00:33N 53°38' E 009°32'1312.8
2015-Apr-10 23:33N 53°33' E 009°51'5 4.7
2015-Apr-10 22:31N 53°30' E 009°57'0 0.0
2015-Apr-10 21:31N 53°30' E 009°57'0 0.0
2015-Apr-10 20:31N 53°30' E 009°57'0 0.0
2015-Apr-10 19:28N 53°30' E 009°57'0 0.0
2015-Apr-10 18:31N 53°30' E 009°57'0 0.0
2015-Apr-10 17:31N 53°30' E 009°57'0 0.0
2015-Apr-10 16:31N 53°30' E 009°57'0 0.0
2015-Apr-10 15:31N 53°30' E 009°57'0 0.0
2015-Apr-10 14:28N 53°30' E 009°57'0 0.0
2015-Apr-10 13:34N 53°30' E 009°57'0 0.0
2015-Apr-10 12:25N 53°30' E 009°57'0 0.0
2015-Apr-10 11:31N 53°30' E 009°57'0 0.0
2015-Apr-10 10:34N 53°30' E 009°57'0 0.0
2015-Apr-10 09:31N 53°30' E 009°57'0 0.0
2015-Apr-10 08:34N 53°30' E 009°57'0 0.0
2015-Apr-10 07:31N 53°30' E 009°57'0 0.0
2015-Apr-10 06:31N 53°30' E 009°57'0 0.0
2015-Apr-10 05:25N 53°30' E 009°57'0 0.0
2015-Apr-10 04:31N 53°30' E 009°57'  
Track history (hours):
 
Tides and Currents Weather Stations Pressure Air Temp Water Temp Dewpoint Dewpoint Depression Visibility Wind Speed Wind Dir Waves Ship Positions

Cyprus Cement

Last reported at 2015-Apr-20 03:32 UTC. Time now 2015-Apr-21 09:53 UTC.
Position N 59°36' E 010°38'.

Length 97 m; draft 4.7 m.

Type: Cargo ship. MMSI: 311988000.

Date/timePositionNaut miles runAvg speedWind from/ knotsBaromVisibWave heightAir tempDewpointWater temp
2015-Apr-20 03:32N 59°36' E 010°38'1111.1
2015-Apr-20 02:33N 59°26' E 010°34'1111.0
2015-Apr-20 01:33N 59°15' E 010°38'10 9.8
2015-Apr-20 00:33N 59°05' E 010°40'9 8.7
2015-Apr-19 23:33N 58°57' E 010°42'9 8.5
2015-Apr-19 22:32N 58°48' E 010°44'8 8.6
2015-Apr-19 21:33N 58°40' E 010°46'9 8.5
2015-Apr-19 20:33N 58°31' E 010°51'9 8.8
2015-Apr-19 19:33N 58°23' E 010°55'9 9.1
2015-Apr-19 18:33N 58°14' E 011°00'9 9.1
2015-Apr-19 17:33N 58°06' E 011°05'9 9.3
2015-Apr-19 16:33N 57°57' E 011°10'9 9.0
2015-Apr-19 15:33N 57°48' E 011°14'9 8.5
2015-Apr-19 14:33N 57°40' E 011°19'9 8.8
2015-Apr-19 13:33N 57°31' E 011°24'9 8.8
2015-Apr-19 12:33N 57°23' E 011°29'9 8.8
2015-Apr-19 11:33N 57°15' E 011°35'9 8.6
2015-Apr-19 10:33N 57°07' E 011°40'9 8.7
2015-Apr-19 09:33N 56°59' E 011°46'7 6.8
2015-Apr-19 08:33N 56°52' E 011°49'9 9.4
2015-Apr-19 07:33N 56°43' E 011°55'1010.4
2015-Apr-19 06:33N 56°33' E 012°00'1010.1
2015-Apr-19 05:33N 56°24' E 012°08'1312.7
2015-Apr-19 04:34N 56°14' E 012°22'1514.5
2015-Apr-19 03:33N 56°03' E 012°39'1413.7
2015-Apr-19 02:33N 55°50' E 012°46'1313.3
2015-Apr-19 01:33N 55°38' E 012°58'2 2.0
2015-Apr-19 00:31N 55°38' E 013°01'0 0.0
2015-Apr-18 23:31N 55°38' E 013°01'0 0.0
2015-Apr-18 22:31N 55°38' E 013°01'0 0.0
2015-Apr-18 21:31N 55°38' E 013°01'0 0.0
2015-Apr-18 20:31N 55°38' E 013°01'0 0.0
2015-Apr-18 19:31N 55°38' E 013°01'0 0.0
2015-Apr-18 18:31N 55°38' E 013°01'0 0.0
2015-Apr-18 17:31N 55°38' E 013°01'0 0.0
2015-Apr-18 16:31N 55°38' E 013°01'0 0.0
2015-Apr-18 15:31N 55°38' E 013°01'0 0.0
2015-Apr-18 14:31N 55°38' E 013°01'0 0.0
2015-Apr-18 13:31N 55°38' E 013°01'0 0.0
2015-Apr-18 12:31N 55°38' E 013°01'0 0.0
2015-Apr-18 11:31N 55°38' E 013°01'0 0.0
2015-Apr-18 10:31N 55°38' E 013°01'0 0.0
2015-Apr-18 09:28N 55°38' E 013°01'0 0.0
2015-Apr-18 08:31N 55°38' E 013°01'0 0.0
2015-Apr-18 07:31N 55°38' E 013°01'0 0.0
2015-Apr-18 06:31N 55°38' E 013°01'0 0.0
2015-Apr-18 05:28N 55°38' E 013°01'0 0.0
2015-Apr-18 04:31N 55°38' E 013°01'0 0.0
2015-Apr-18 03:31N 55°38' E 013°01'0 0.0
2015-Apr-18 02:31N 55°38' E 013°01'0 0.1
2015-Apr-18 01:33N 55°38' E 013°01'3 3.1
2015-Apr-18 00:33N 55°38' E 012°56'7 7.5
2015-Apr-17 23:33N 55°33' E 012°47'10 9.6
2015-Apr-17 22:33N 55°24' E 012°41'9 9.0
2015-Apr-17 21:33N 55°16' E 012°51'1211.6
2015-Apr-17 20:33N 55°15' E 013°11'  
2015-Apr-13 12:29N 55°41' E 015°34'1011.1
2015-Apr-13 11:34N 55°36' E 015°18'1111.4
2015-Apr-13 10:34N 55°31' E 014°60'1211.6
2015-Apr-13 09:34N 55°25' E 014°42'1111.1
2015-Apr-13 08:34N 55°17' E 014°28'1110.8
2015-Apr-13 07:33N 55°11' E 014°13'3611.8
2015-Apr-13 04:31N 55°14' E 013°10'1111.8
2015-Apr-13 03:34N 55°15' E 012°51'10 9.6
2015-Apr-13 02:34N 55°22' E 012°39'1111.1
2015-Apr-13 01:33N 55°33' E 012°42'9 9.4
2015-Apr-13 00:34N 55°42' E 012°41'1111.2
2015-Apr-12 23:34N 55°53' E 012°39'1111.0
2015-Apr-12 22:34N 56°04' E 012°37'1212.2
2015-Apr-12 21:33N 56°12' E 012°20'1211.5
2015-Apr-12 20:33N 56°19' E 012°03'1311.2
2015-Apr-12 19:21N 56°32' E 011°58'911.1
2015-Apr-12 18:34N 56°41' E 011°54'1111.4
2015-Apr-12 17:33N 56°52' E 011°48'1211.8
2015-Apr-12 16:34N 57°03' E 011°41'1211.7
2015-Apr-12 15:34N 57°14' E 011°34'1211.9
2015-Apr-12 14:33N 57°25' E 011°27'1211.8
2015-Apr-12 13:33N 57°34' E 011°12'1211.9
2015-Apr-12 12:34N 57°41' E 010°54'9 1.4
2015-Apr-12 06:33N 57°47' E 010°42'17711.0
2015-Apr-11 14:33N 55°28' E 007°22'1111.4
2015-Apr-11 13:33N 55°17' E 007°24'1111.2
2015-Apr-11 12:34N 55°06' E 007°27'1111.4
2015-Apr-11 11:33N 54°55' E 007°29'1111.4
2015-Apr-11 10:33N 54°43' E 007°31'1211.8
2015-Apr-11 09:33N 54°32' E 007°32'1212.1
2015-Apr-11 08:33N 54°20' E 007°35'1312.5
2015-Apr-11 07:33N 54°10' E 007°47'1312.8
2015-Apr-11 06:34N 54°01' E 008°04'1312.7
2015-Apr-11 05:33N 53°59' E 008°25'1111.2
2015-Apr-11 04:33N 53°54' E 008°42'9 8.7
2015-Apr-11 03:33N 53°51' E 008°56'9 8.5
2015-Apr-11 02:33N 53°53' E 009°10'8 8.2
2015-Apr-11 01:34N 53°49' E 009°22'1212.1
2015-Apr-11 00:33N 53°38' E 009°32'1312.8
2015-Apr-10 23:33N 53°33' E 009°51'5 4.7
2015-Apr-10 22:31N 53°30' E 009°57'0 0.0
2015-Apr-10 21:31N 53°30' E 009°57'0 0.0
2015-Apr-10 20:31N 53°30' E 009°57'0 0.0
2015-Apr-10 19:28N 53°30' E 009°57'0 0.0
2015-Apr-10 18:31N 53°30' E 009°57'0 0.0
2015-Apr-10 17:31N 53°30' E 009°57'0 0.0
2015-Apr-10 16:31N 53°30' E 009°57'0 0.0
2015-Apr-10 15:31N 53°30' E 009°57'0 0.0
2015-Apr-10 14:28N 53°30' E 009°57'0 0.0
2015-Apr-10 13:34N 53°30' E 009°57'0 0.0
2015-Apr-10 12:25N 53°30' E 009°57'0 0.0
2015-Apr-10 11:31N 53°30' E 009°57'0 0.0
2015-Apr-10 10:34N 53°30' E 009°57'0 0.0
2015-Apr-10 09:31N 53°30' E 009°57'0 0.0
2015-Apr-10 08:34N 53°30' E 009°57'0 0.0
2015-Apr-10 07:31N 53°30' E 009°57'0 0.0
2015-Apr-10 06:31N 53°30' E 009°57'0 0.0
2015-Apr-10 05:25N 53°30' E 009°57'0 0.0
2015-Apr-10 04:31N 53°30' E 009°57'  

Dump ship's entire track history